Time,TemperatureF,DewpointF,PressureIn,WindDirection,WindDirectionDegrees,WindSpeedMPH,WindSpeedGustMPH,Humidity,HourlyPrecipIn,Conditions,Clouds,dailyrainin,SoftwareType,DateUTC
2013-07-06 00:03:00,65.6,61.0,29.98,SW,236,0.0,2.0,85,0.00,,,0.00,weatherlink.com 1.10,2013-07-06 04:03:00,
2013-07-06 00:19:00,64.9,61.0,29.98,SW,215,0.0,1.0,86,0.00,,,0.00,weatherlink.com 1.10,2013-07-06 04:19:00,
2013-07-06 00:34:00,63.7,60.0,29.98,SSE,160,0.0,1.0,88,0.00,,,0.00,weatherlink.com 1.10,2013-07-06 04:34:00,
2013-07-06 00:49:00,62.3,59.0,29.98,SSE,160,0.0,0.0,90,0.00,,,0.00,weatherlink.com 1.10,2013-07-06 04:49:00,
2013-07-06 01:04:00,61.6,59.0,29.97,SSE,160,0.0,0.0,91,0.00,,,0.00,weatherlink.com 1.10,2013-07-06 05:04:00,
2013-07-06 01:19:00,61.2,59.0,29.98,SSE,161,0.0,0.0,91,0.00,,,0.00,weatherlink.com 1.10,2013-07-06 05:19:00,
2013-07-06 01:34:00,60.5,58.0,29.98,SSE,161,0.0,0.0,91,0.00,,,0.00,weatherlink.com 1.10,2013-07-06 05:34:00,
2013-07-06 01:49:00,60.1,58.0,29.98,SSE,160,0.0,0.0,91,0.00,,,0.00,weatherlink.com 1.10,2013-07-06 05:49:00,
2013-07-06 02:04:00,60.0,58.0,29.98,SSE,160,0.0,1.0,92,0.00,,,0.00,weatherlink.com 1.10,2013-07-06 06:04:00,
2013-07-06 02:19:00,59.9,58.0,29.98,SSE,161,0.0,0.0,92,0.00,,,0.00,weatherlink.com 1.10,2013-07-06 06:19:00,
2013-07-06 02:34:00,59.5,57.0,29.98,SSE,160,0.0,0.0,92,0.00,,,0.00,weatherlink.com 1.10,2013-07-06 06:34:00,
2013-07-06 02:49:00,59.0,57.0,29.98,SSE,160,0.0,0.0,92,0.00,,,0.00,weatherlink.com 1.10,2013-07-06 06:49:00,
2013-07-06 03:04:00,58.9,57.0,29.98,SSE,160,0.0,0.0,92,0.00,,,0.00,weatherlink.com 1.10,2013-07-06 07:04:00,
2013-07-06 03:19:00,59.0,57.0,29.98,SSE,161,0.0,0.0,92,0.00,,,0.00,weatherlink.com 1.10,2013-07-06 07:19:00,
2013-07-06 03:34:00,58.8,57.0,29.98,SSE,160,0.0,0.0,92,0.00,,,0.00,weatherlink.com 1.10,2013-07-06 07:34:00,
2013-07-06 03:49:00,58.9,57.0,29.98,SSE,160,0.0,0.0,93,0.00,,,0.00,weatherlink.com 1.10,2013-07-06 07:49:00,
2013-07-06 04:04:00,59.0,57.0,29.98,SSE,160,0.0,0.0,93,0.00,,,0.00,weatherlink.com 1.10,2013-07-06 08:04:00,
2013-07-06 04:19:00,59.0,57.0,29.98,SSE,161,0.0,0.0,93,0.00,,,0.00,weatherlink.com 1.10,2013-07-06 08:19:00,
2013-07-06 04:34:00,58.9,57.0,29.98,SW,218,0.0,1.0,93,0.00,,,0.00,weatherlink.com 1.10,2013-07-06 08:34:00,
2013-07-06 04:49:00,59.4,57.0,29.98,SW,222,0.0,1.0,93,0.00,,,0.00,weatherlink.com 1.10,2013-07-06 08:49:00,
2013-07-06 05:04:00,60.1,58.0,29.98,SW,222,0.0,1.0,93,0.00,,,0.00,weatherlink.com 1.10,2013-07-06 09:04:00,
2013-07-06 05:19:00,59.3,57.0,29.98,SW,222,0.0,0.0,93,0.00,,,0.00,weatherlink.com 1.10,2013-07-06 09:19:00,
2013-07-06 05:34:00,59.3,57.0,29.98,SW,222,0.0,0.0,93,0.00,,,0.00,weatherlink.com 1.10,2013-07-06 09:34:00,
2013-07-06 05:49:00,59.6,58.0,29.98,SW,223,0.0,0.0,93,0.00,,,0.00,weatherlink.com 1.10,2013-07-06 09:49:00,
2013-07-06 06:04:00,59.5,58.0,29.98,SSW,197,0.0,1.0,93,0.00,,,0.00,weatherlink.com 1.10,2013-07-06 10:04:00,
2013-07-06 06:19:00,60.1,58.0,29.98,SSW,197,0.0,0.0,93,0.00,,,0.00,weatherlink.com 1.10,2013-07-06 10:19:00,
2013-07-06 06:34:00,60.4,58.0,29.99,South,187,0.0,1.0,93,0.00,,,0.00,weatherlink.com 1.10,2013-07-06 10:34:00,
2013-07-06 06:49:00,60.8,59.0,29.98,SE,142,0.0,2.0,93,0.00,,,0.00,weatherlink.com 1.10,2013-07-06 10:49:00,
2013-07-06 07:04:00,61.8,60.0,29.98,WSW,255,0.0,1.0,93,0.00,,,0.00,weatherlink.com 1.10,2013-07-06 11:04:00,
2013-07-06 07:19:00,63.1,61.0,29.99,WSW,238,0.0,2.0,92,0.00,,,0.00,weatherlink.com 1.10,2013-07-06 11:19:00,
2013-07-06 07:34:00,65.5,62.0,29.99,SW,222,0.0,2.0,89,0.00,,,0.00,weatherlink.com 1.10,2013-07-06 11:34:00,
2013-07-06 07:49:00,67.7,63.0,29.99,SSW,198,1.0,3.0,84,0.00,,,0.00,weatherlink.com 1.10,2013-07-06 11:49:00,
2013-07-06 08:04:00,69.2,63.0,29.99,SSW,198,4.0,6.0,80,0.00,,,0.00,weatherlink.com 1.10,2013-07-06 12:04:00,
2013-07-06 08:19:00,70.4,64.0,29.99,WSW,246,3.0,5.0,79,0.00,,,0.00,weatherlink.com 1.10,2013-07-06 12:19:00,
2013-07-06 08:34:00,70.9,63.0,29.99,WSW,246,2.0,8.0,77,0.00,,,0.00,weatherlink.com 1.10,2013-07-06 12:34:00,
2013-07-06 08:50:00,71.7,64.0,29.99,SW,228,2.0,8.0,76,0.00,,,0.00,weatherlink.com 1.10,2013-07-06 12:50:00,
2013-07-06 09:05:00,72.6,64.0,29.99,SW,214,4.0,9.0,74,0.00,,,0.00,weatherlink.com 1.10,2013-07-06 13:05:00,
2013-07-06 09:20:00,73.0,64.0,29.99,South,175,2.0,10.0,74,0.00,,,0.00,weatherlink.com 1.10,2013-07-06 13:20:00,
2013-07-06 09:35:00,73.6,65.0,29.98,SW,219,4.0,8.0,74,0.00,,,0.00,weatherlink.com 1.10,2013-07-06 13:35:00,
2013-07-06 09:50:00,74.5,65.0,29.98,South,190,2.0,9.0,72,0.00,,,0.00,weatherlink.com 1.10,2013-07-06 13:50:00,
2013-07-06 10:05:00,74.9,65.0,29.98,SW,221,6.0,10.0,70,0.00,,,0.00,weatherlink.com 1.10,2013-07-06 14:05:00,
2013-07-06 10:20:00,75.6,65.0,29.98,West,260,6.0,11.0,69,0.00,,,0.00,weatherlink.com 1.10,2013-07-06 14:20:00,
2013-07-06 10:35:00,76.5,66.0,29.98,SSE,168,5.0,9.0,69,0.00,,,0.00,weatherlink.com 1.10,2013-07-06 14:35:00,
2013-07-06 10:50:00,77.6,66.0,29.97,West,278,7.0,12.0,67,0.00,,,0.00,weatherlink.com 1.10,2013-07-06 14:50:00,
2013-07-06 11:05:00,78.5,66.0,29.98,SSW,194,4.0,9.0,65,0.00,,,0.00,weatherlink.com 1.10,2013-07-06 15:05:00,
2013-07-06 11:20:00,78.6,65.0,29.98,SSW,200,2.0,12.0,64,0.00,,,0.00,weatherlink.com 1.10,2013-07-06 15:20:00,
2013-07-06 11:35:00,79.6,66.0,29.98,WSW,239,4.0,11.0,63,0.00,,,0.00,weatherlink.com 1.10,2013-07-06 15:35:00,
2013-07-06 11:50:00,80.0,64.0,29.98,West,269,5.0,12.0,59,0.00,,,0.00,weatherlink.com 1.10,2013-07-06 15:50:00,
2013-07-06 12:05:00,80.8,66.0,29.98,West,266,7.0,14.0,60,0.00,,,0.00,weatherlink.com 1.10,2013-07-06 16:05:00,
2013-07-06 12:20:00,80.7,64.0,29.98,WSW,245,7.0,13.0,58,0.00,,,0.00,weatherlink.com 1.10,2013-07-06 16:20:00,
2013-07-06 12:36:00,80.9,64.0,29.98,WSW,255,4.0,13.0,57,0.00,,,0.00,weatherlink.com 1.10,2013-07-06 16:36:00,
2013-07-06 12:50:00,81.1,64.0,29.98,West,262,10.0,15.0,57,0.00,,,0.00,weatherlink.com 1.10,2013-07-06 16:50:00,
2013-07-06 13:05:00,82.0,65.0,29.98,SSW,212,2.0,11.0,56,0.00,,,0.00,weatherlink.com 1.10,2013-07-06 17:05:00,
2013-07-06 13:20:00,82.0,65.0,29.98,SSW,210,8.0,14.0,57,0.00,,,0.00,weatherlink.com 1.10,2013-07-06 17:20:00,
2013-07-06 13:50:00,82.3,64.0,29.98,West,278,6.0,15.0,54,0.00,,,0.00,weatherlink.com 1.10,2013-07-06 17:50:00,
2013-07-06 14:05:00,82.8,64.0,29.97,West,266,4.0,13.0,54,0.00,,,0.00,weatherlink.com 1.10,2013-07-06 18:05:00,
2013-07-06 14:35:00,83.6,63.0,29.96,WSW,250,7.0,13.0,50,0.00,,,0.00,weatherlink.com 1.10,2013-07-06 18:35:00,
2013-07-06 15:06:00,83.8,63.0,29.97,WSW,250,6.0,12.0,50,0.00,,,0.00,weatherlink.com 1.10,2013-07-06 19:06:00,
2013-07-06 15:21:00,84.0,63.0,29.96,WSW,240,2.0,11.0,50,0.00,,,0.00,weatherlink.com 1.10,2013-07-06 19:21:00,
2013-07-06 15:36:00,83.8,64.0,29.95,WNW,291,5.0,13.0,51,0.00,,,0.00,weatherlink.com 1.10,2013-07-06 19:36:00,
2013-07-06 15:51:00,84.3,64.0,29.95,SW,233,4.0,12.0,50,0.00,,,0.00,weatherlink.com 1.10,2013-07-06 19:51:00,
2013-07-06 16:36:00,84.4,61.0,29.95,West,259,3.0,10.0,46,0.00,,,0.00,weatherlink.com 1.10,2013-07-06 20:36:00,
2013-07-06 17:36:00,84.0,58.0,29.93,West,259,9.0,11.0,41,0.00,,,0.00,weatherlink.com 1.10,2013-07-06 21:36:00,
2013-07-06 18:51:00,82.8,59.0,29.93,WSW,256,2.0,10.0,45,0.00,,,0.00,weatherlink.com 1.10,2013-07-06 22:51:00,
2013-07-06 19:06:00,82.7,58.0,29.92,SW,226,3.0,8.0,43,0.00,,,0.00,weatherlink.com 1.10,2013-07-06 23:06:00,
2013-07-06 19:21:00,82.7,57.0,29.92,WSW,257,4.0,8.0,42,0.00,,,0.00,weatherlink.com 1.10,2013-07-06 23:21:00,
2013-07-06 19:36:00,82.1,58.0,29.92,West,263,4.0,7.0,44,0.00,,,0.00,weatherlink.com 1.10,2013-07-06 23:36:00,
2013-07-06 20:21:00,80.4,60.0,29.92,SW,224,1.0,3.0,50,0.00,,,0.00,weatherlink.com 1.10,2013-07-07 00:21:00,
2013-07-06 20:51:00,77.3,62.0,29.92,SW,232,2.0,2.0,59,0.00,,,0.00,weatherlink.com 1.10,2013-07-07 00:51:00,
2013-07-06 21:06:00,74.2,62.0,29.92,WSW,238,0.0,1.0,66,0.00,,,0.00,weatherlink.com 1.10,2013-07-07 01:06:00,
2013-07-06 21:21:00,71.7,62.0,29.93,SW,224,0.0,1.0,71,0.00,,,0.00,weatherlink.com 1.10,2013-07-07 01:21:00,
2013-07-06 22:21:00,65.4,61.0,29.94,WSW,256,0.0,0.0,84,0.00,,,0.00,weatherlink.com 1.10,2013-07-07 02:21:00,
2013-07-06 22:36:00,64.5,60.0,29.94,WSW,254,0.0,0.0,86,0.00,,,0.00,weatherlink.com 1.10,2013-07-07 02:36:00,
2013-07-06 22:51:00,64.4,61.0,29.94,WSW,254,0.0,0.0,87,0.00,,,0.00,weatherlink.com 1.10,2013-07-07 02:51:00,
2013-07-06 23:06:00,63.6,60.0,29.95,WSW,255,0.0,0.0,88,0.00,,,0.00,weatherlink.com 1.10,2013-07-07 03:06:00,